createdAt,value
2019-02-22T00:00:30.334Z,774.00
2019-02-22T00:01:31.155Z,774.00
2019-02-22T00:02:31.780Z,774.00
2019-02-22T00:03:31.870Z,774.00
2019-02-22T00:04:32.757Z,774.00
2019-02-22T00:05:33.297Z,774.00
2019-02-22T00:06:33.784Z,775.00
2019-02-22T00:07:34.312Z,776.00
2019-02-22T00:08:34.315Z,775.00
2019-02-22T00:09:34.905Z,775.00
2019-02-22T00:10:35.385Z,776.00
2019-02-22T00:11:36.118Z,775.00
2019-02-22T00:12:35.581Z,775.00
2019-02-22T00:13:37.297Z,774.00
2019-02-22T00:14:37.992Z,774.00
2019-02-22T00:15:38.907Z,774.00
2019-02-22T00:16:39.495Z,774.00
2019-02-22T00:17:40.100Z,774.00
2019-02-22T00:18:40.756Z,774.00
2019-02-22T00:19:41.346Z,774.00
2019-02-22T00:20:42.024Z,773.00
2019-02-22T00:21:42.944Z,773.00
2019-02-22T00:22:43.712Z,773.00
2019-02-22T00:23:43.216Z,774.00
2019-02-22T00:24:44.928Z,773.00
2019-02-22T00:25:45.696Z,773.00
2019-02-22T00:26:46.515Z,773.00
2019-02-22T00:27:47.041Z,773.00
2019-02-22T00:28:47.819Z,773.00
2019-02-22T00:29:48.238Z,773.00
2019-02-22T00:30:48.757Z,773.00
2019-02-22T00:31:49.582Z,774.00
2019-02-22T00:32:50.301Z,773.00
2019-02-22T00:33:51.072Z,774.00
2019-02-22T00:34:52.124Z,775.00
2019-02-22T00:35:51.679Z,774.00
2019-02-22T00:36:52.186Z,774.00
2019-02-22T00:37:52.625Z,774.00
2019-02-22T00:38:54.354Z,774.00
2019-02-22T00:39:54.953Z,773.00
2019-02-22T00:40:55.680Z,773.00
2019-02-22T00:41:56.664Z,774.00
2019-02-22T00:42:05.708Z,774.00
2019-02-22T00:43:07.163Z,774.00
2019-02-22T00:44:07.819Z,774.00
2019-02-22T00:45:08.584Z,774.00
2019-02-22T00:46:09.165Z,773.00
2019-02-22T00:47:09.402Z,774.00
2019-02-22T00:48:10.031Z,773.00
2019-02-22T00:49:10.549Z,773.00
2019-02-22T00:50:11.342Z,773.00
2019-02-22T00:51:11.877Z,773.00
2019-02-22T00:52:12.452Z,773.00
2019-02-22T00:53:13.041Z,773.00
2019-02-22T00:54:12.496Z,773.00
2019-02-22T00:55:14.016Z,774.00
2019-02-22T00:56:14.666Z,774.00
2019-02-22T00:57:14.847Z,774.00
2019-02-22T00:58:15.632Z,774.00
2019-02-22T00:59:16.304Z,773.00
2019-02-22T01:00:16.936Z,774.00
2019-02-22T01:01:16.735Z,774.00
2019-02-22T01:02:18.397Z,774.00
2019-02-22T01:03:19.208Z,774.00
2019-02-22T01:04:19.948Z,774.00
2019-02-22T01:05:19.925Z,773.00
2019-02-22T01:06:20.524Z,773.00
2019-02-22T01:07:21.416Z,773.00
2019-02-22T01:08:21.995Z,774.00
2019-02-22T01:09:22.636Z,773.00
2019-02-22T01:10:30.746Z,773.00
2019-02-22T01:11:23.054Z,773.00
2019-02-22T01:12:24.809Z,773.00
2019-02-22T01:13:25.280Z,774.00
2019-02-22T01:14:25.793Z,774.00
2019-02-22T01:15:26.381Z,774.00
2019-02-22T01:16:27.127Z,774.00
2019-02-22T01:17:27.584Z,774.00
2019-02-22T01:18:27.844Z,776.00
2019-02-22T01:19:28.437Z,775.00
2019-02-22T01:20:29.036Z,774.00
2019-02-22T01:21:29.057Z,774.00
2019-02-22T01:22:29.783Z,774.00
2019-02-22T01:23:30.447Z,774.00
2019-02-22T01:24:31.238Z,774.00
2019-02-22T01:25:31.883Z,774.00
2019-02-22T01:26:32.565Z,775.00
2019-02-22T01:27:33.170Z,775.00
2019-02-22T01:27:42.216Z,775.00
2019-02-22T01:28:43.481Z,775.00
2019-02-22T01:29:44.129Z,775.00
2019-02-22T01:30:44.633Z,775.00
2019-02-22T01:31:45.310Z,775.00
2019-02-22T01:32:45.938Z,775.00
2019-02-22T01:33:46.485Z,775.00
2019-02-22T01:34:47.021Z,774.00
2019-02-22T01:35:47.547Z,775.00
2019-02-22T01:36:48.053Z,774.00
2019-02-22T01:37:49.658Z,774.00
2019-02-22T01:38:48.182Z,774.00
2019-02-22T01:39:49.639Z,775.00
2019-02-22T01:40:50.313Z,774.00
2019-02-22T01:41:50.881Z,774.00
2019-02-22T01:42:51.447Z,774.00
2019-02-22T01:43:52.004Z,774.00
2019-02-22T01:44:52.916Z,774.00
2019-02-22T01:45:53.515Z,773.00
2019-02-22T01:46:54.143Z,773.00
2019-02-22T01:47:54.825Z,773.00
2019-02-22T01:48:55.328Z,773.00
2019-02-22T01:49:55.802Z,773.00
2019-02-22T01:50:56.636Z,773.00
2019-02-22T01:51:56.205Z,773.00
2019-02-22T01:52:57.688Z,773.00
2019-02-22T01:53:58.263Z,773.00
2019-02-22T01:54:58.983Z,773.00
2019-02-22T01:55:59.624Z,773.00
2019-02-22T01:57:00.176Z,773.00
2019-02-22T01:58:01.074Z,775.00
2019-02-22T01:59:01.602Z,775.00
2019-02-22T02:00:02.127Z,775.00
2019-02-22T02:01:02.901Z,775.00
2019-02-22T02:02:03.313Z,774.00
2019-02-22T02:03:04.019Z,774.00
2019-02-22T02:04:04.989Z,774.00
2019-02-22T02:05:05.586Z,774.00
2019-02-22T02:06:06.313Z,774.00
2019-02-22T02:07:06.879Z,774.00
2019-02-22T02:08:07.394Z,773.00
2019-02-22T02:09:07.954Z,774.00
2019-02-22T02:10:08.546Z,774.00
2019-02-22T02:11:09.074Z,774.00
2019-02-22T02:12:09.126Z,774.00
2019-02-22T02:13:09.951Z,773.00
2019-02-22T02:13:19.002Z,773.00
2019-02-22T02:14:20.522Z,773.00
2019-02-22T02:15:21.128Z,774.00
2019-02-22T02:16:21.830Z,773.00
2019-02-22T02:17:22.268Z,773.00
2019-02-22T02:18:22.755Z,774.00
2019-02-22T02:19:23.425Z,774.00
2019-02-22T02:20:24.020Z,773.00
2019-02-22T02:21:23.624Z,773.00
2019-02-22T02:22:25.151Z,774.00
2019-02-22T02:23:25.680Z,774.00
2019-02-22T02:24:26.358Z,774.00
2019-02-22T02:25:26.974Z,774.00
2019-02-22T02:26:27.466Z,774.00
2019-02-22T02:27:28.043Z,773.00
2019-02-22T02:28:28.554Z,773.00
2019-02-22T02:29:29.305Z,776.00
2019-02-22T02:30:29.900Z,775.00
2019-02-22T02:31:30.354Z,775.00
2019-02-22T02:32:30.793Z,774.00
2019-02-22T02:33:31.293Z,774.00
2019-02-22T02:34:31.863Z,774.00
2019-02-22T02:35:32.414Z,774.00
2019-02-22T02:36:33.059Z,775.00
2019-02-22T02:37:33.483Z,774.00
2019-02-22T02:38:33.928Z,773.00
2019-02-22T02:39:34.780Z,774.00
2019-02-22T02:40:35.231Z,774.00
2019-02-22T02:41:35.781Z,773.00
2019-02-22T02:42:36.015Z,773.00
2019-02-22T02:43:35.695Z,773.00
2019-02-22T02:44:37.405Z,774.00
2019-02-22T02:45:38.037Z,773.00
2019-02-22T02:46:38.615Z,773.00
2019-02-22T02:47:38.148Z,773.00
2019-02-22T02:48:39.923Z,773.00
2019-02-22T02:49:40.697Z,773.00
2019-02-22T02:50:41.327Z,773.00
2019-02-22T02:51:42.055Z,773.00
2019-02-22T02:52:42.728Z,773.00
2019-02-22T02:53:43.213Z,773.00
2019-02-22T02:54:43.808Z,773.00
2019-02-22T02:55:44.417Z,773.00
2019-02-22T02:56:46.235Z,772.00
2019-02-22T02:57:44.870Z,772.00
2019-02-22T02:58:46.421Z,772.00
2019-02-22T02:59:46.038Z,772.00
2019-02-22T03:00:47.771Z,773.00
2019-02-22T03:00:57.427Z,772.00
2019-02-22T03:01:57.973Z,773.00
2019-02-22T03:02:59.536Z,772.00
2019-02-22T03:03:59.833Z,772.00
2019-02-22T03:05:00.825Z,773.00
2019-02-22T03:06:01.500Z,773.00
2019-02-22T03:07:02.084Z,772.00
2019-02-22T03:08:02.613Z,773.00
2019-02-22T03:09:03.124Z,772.00
2019-02-22T03:10:03.565Z,772.00
2019-02-22T03:11:04.383Z,772.00
2019-02-22T03:12:04.997Z,772.00
2019-02-22T03:13:04.495Z,772.00
2019-02-22T03:14:05.934Z,772.00
2019-02-22T03:15:06.375Z,772.00
2019-02-22T03:16:06.870Z,772.00
2019-02-22T03:17:07.636Z,772.00
2019-02-22T03:18:08.179Z,772.00
2019-02-22T03:19:08.695Z,773.00
2019-02-22T03:20:09.597Z,774.00
2019-02-22T03:21:10.102Z,774.00
2019-02-22T03:22:10.609Z,773.00
2019-02-22T03:23:11.120Z,772.00
2019-02-22T03:24:11.681Z,773.00
2019-02-22T03:25:12.220Z,773.00
2019-02-22T03:26:12.917Z,773.00
2019-02-22T03:27:13.490Z,773.00
2019-02-22T03:28:14.120Z,773.00
2019-02-22T03:29:14.752Z,773.00
2019-02-22T03:30:15.381Z,772.00
2019-02-22T03:31:16.246Z,772.00
2019-02-22T03:32:16.704Z,772.00
2019-02-22T03:33:17.308Z,772.00
2019-02-22T03:34:16.785Z,772.00
2019-02-22T03:35:18.547Z,772.00
2019-02-22T03:36:19.228Z,772.00
2019-02-22T03:37:19.995Z,773.00
2019-02-22T03:38:20.859Z,772.00
2019-02-22T03:39:21.432Z,772.00
2019-02-22T03:40:21.968Z,772.00
2019-02-22T03:41:32.183Z,772.00
2019-02-22T03:42:22.036Z,772.00
2019-02-22T03:43:23.680Z,772.00
2019-02-22T03:44:24.424Z,772.00
2019-02-22T03:45:25.284Z,773.00
2019-02-22T03:46:25.883Z,773.00
2019-02-22T03:47:26.512Z,773.00
2019-02-22T03:48:27.373Z,773.00
2019-02-22T03:49:28.244Z,773.00
2019-02-22T03:49:37.263Z,772.00
2019-02-22T03:50:38.939Z,775.00
2019-02-22T03:51:39.477Z,774.00
2019-02-22T03:52:39.602Z,774.00
2019-02-22T03:53:40.382Z,774.00
2019-02-22T03:54:41.014Z,773.00
2019-02-22T03:55:41.682Z,773.00
2019-02-22T03:56:42.256Z,773.00
2019-02-22T03:57:43.066Z,772.00
2019-02-22T03:58:43.583Z,773.00
2019-02-22T03:59:44.156Z,775.00
2019-02-22T04:00:44.685Z,776.00
2019-02-22T04:01:45.242Z,774.00
2019-02-22T04:02:46.109Z,774.00
2019-02-22T04:03:46.691Z,774.00
2019-02-22T04:04:47.248Z,773.00
2019-02-22T04:05:47.814Z,773.00
2019-02-22T04:06:48.356Z,773.00
2019-02-22T04:07:48.927Z,773.00
2019-02-22T04:08:49.777Z,773.00
2019-02-22T04:09:50.426Z,773.00
2019-02-22T04:10:51.094Z,773.00
2019-02-22T04:11:51.816Z,776.00
2019-02-22T04:12:52.394Z,774.00
2019-02-22T04:13:53.155Z,773.00
2019-02-22T04:14:53.799Z,774.00
2019-02-22T04:15:54.492Z,774.00
2019-02-22T04:16:55.308Z,774.00
2019-02-22T04:17:55.853Z,774.00
2019-02-22T04:18:56.358Z,773.00
2019-02-22T04:19:57.137Z,774.00
2019-02-22T04:20:57.714Z,774.00
2019-02-22T04:21:58.450Z,773.00
2019-02-22T04:22:58.990Z,773.00
2019-02-22T04:23:59.618Z,774.00
2019-02-22T04:25:00.571Z,774.00
2019-02-22T04:26:00.265Z,773.00
2019-02-22T04:27:01.439Z,773.00
2019-02-22T04:28:02.207Z,774.00
2019-02-22T04:29:01.792Z,773.00
2019-02-22T04:30:03.502Z,773.00
2019-02-22T04:31:04.468Z,773.00
2019-02-22T04:32:04.644Z,773.00
2019-02-22T04:33:05.311Z,773.00
2019-02-22T04:34:06.124Z,773.00
2019-02-22T04:35:06.685Z,773.00
2019-02-22T04:36:07.332Z,773.00
2019-02-22T04:36:17.405Z,773.00
2019-02-22T04:37:18.864Z,773.00
2019-02-22T04:38:19.110Z,773.00
2019-02-22T04:39:19.735Z,775.00
2019-02-22T04:40:20.527Z,774.00
2019-02-22T04:41:21.165Z,774.00
2019-02-22T04:42:21.658Z,775.00
2019-02-22T04:43:22.321Z,775.00
2019-02-22T04:44:23.034Z,774.00
2019-02-22T04:45:23.460Z,775.00
2019-02-22T04:46:23.644Z,775.00
2019-02-22T04:47:24.114Z,775.00
2019-02-22T04:48:24.647Z,774.00
2019-02-22T04:49:25.364Z,774.00
2019-02-22T04:50:25.086Z,774.00
2019-02-22T04:51:26.629Z,774.00
2019-02-22T04:52:27.099Z,774.00
2019-02-22T04:53:27.886Z,774.00
2019-02-22T04:54:28.566Z,775.00
2019-02-22T04:55:29.424Z,774.00
2019-02-22T04:56:28.701Z,774.00
2019-02-22T04:57:30.259Z,774.00
2019-02-22T04:58:30.284Z,774.00
2019-02-22T04:59:30.944Z,774.00
2019-02-22T05:00:31.548Z,775.00
2019-02-22T05:01:32.442Z,774.00
2019-02-22T05:02:33.050Z,774.00
2019-02-22T05:03:33.654Z,773.00
2019-02-22T05:04:34.341Z,774.00
2019-02-22T05:05:35.025Z,774.00
2019-02-22T05:06:35.644Z,774.00
2019-02-22T05:07:36.458Z,774.00
2019-02-22T05:08:37.083Z,774.00
2019-02-22T05:09:37.825Z,774.00
2019-02-22T05:10:38.695Z,774.00
2019-02-22T05:11:38.397Z,774.00
2019-02-22T05:12:40.223Z,773.00
2019-02-22T05:13:39.882Z,774.00
2019-02-22T05:14:41.520Z,773.00
2019-02-22T05:15:41.059Z,773.00
2019-02-22T05:16:42.296Z,773.00
2019-02-22T05:17:42.927Z,773.00
2019-02-22T05:18:43.512Z,773.00
2019-02-22T05:19:43.505Z,775.00
2019-02-22T05:20:44.420Z,775.00
2019-02-22T05:21:45.270Z,778.00
2019-02-22T05:22:46.230Z,776.00
2019-02-22T05:23:46.950Z,775.00
2019-02-22T05:23:55.969Z,775.00
2019-02-22T05:24:56.978Z,774.00
2019-02-22T05:25:56.988Z,774.00
2019-02-22T05:26:57.834Z,773.00
2019-02-22T05:27:58.627Z,773.00
2019-02-22T05:28:58.674Z,773.00
2019-02-22T05:29:59.320Z,774.00
2019-02-22T05:31:00.053Z,774.00
2019-02-22T05:32:00.609Z,774.00
2019-02-22T05:33:01.238Z,774.00
2019-02-22T05:34:02.120Z,775.00
2019-02-22T05:35:02.604Z,774.00
2019-02-22T05:36:03.094Z,774.00
2019-02-22T05:37:03.960Z,774.00
2019-02-22T05:38:04.528Z,774.00
2019-02-22T05:39:05.179Z,774.00
2019-02-22T05:40:06.024Z,774.00
2019-02-22T05:41:06.805Z,774.00
2019-02-22T05:42:07.600Z,774.00
2019-02-22T05:43:08.172Z,773.00
2019-02-22T05:44:08.753Z,773.00
2019-02-22T05:45:08.800Z,773.00
2019-02-22T05:46:09.704Z,773.00
2019-02-22T05:47:09.758Z,773.00
2019-02-22T05:48:10.462Z,773.00
2019-02-22T05:49:11.342Z,773.00
2019-02-22T05:50:12.004Z,774.00
2019-02-22T05:51:12.062Z,774.00
2019-02-22T05:52:12.476Z,778.00
2019-02-22T05:53:12.663Z,778.00
2019-02-22T05:54:13.453Z,776.00
2019-02-22T05:55:14.061Z,775.00
2019-02-22T05:56:14.820Z,774.00
2019-02-22T05:57:15.527Z,774.00
2019-02-22T05:58:15.588Z,775.00
2019-02-22T05:59:16.210Z,778.00
2019-02-22T06:00:16.784Z,778.00
2019-02-22T06:01:17.492Z,775.00
2019-02-22T06:02:18.088Z,776.00
2019-02-22T06:03:18.642Z,778.00
2019-02-22T06:04:19.341Z,782.00
2019-02-22T06:05:20.248Z,780.00
2019-02-22T06:06:21.373Z,777.00
2019-02-22T06:07:20.676Z,776.00
2019-02-22T06:08:22.695Z,776.00
2019-02-22T06:09:23.204Z,775.00
2019-02-22T06:09:32.234Z,775.00
2019-02-22T06:10:33.729Z,775.00
2019-02-22T06:11:34.588Z,775.00
2019-02-22T06:12:35.227Z,774.00
2019-02-22T06:13:34.752Z,776.00
2019-02-22T06:14:36.246Z,774.00
2019-02-22T06:15:36.853Z,774.00
2019-02-22T06:16:37.330Z,774.00
2019-02-22T06:17:38.020Z,778.00
2019-02-22T06:18:38.575Z,775.00
2019-02-22T06:19:39.012Z,775.00
2019-02-22T06:20:39.861Z,775.00
2019-02-22T06:21:40.685Z,775.00
2019-02-22T06:22:40.331Z,774.00
2019-02-22T06:23:41.990Z,775.00
2019-02-22T06:24:42.452Z,775.00
2019-02-22T06:25:43.015Z,775.00
2019-02-22T06:26:43.867Z,776.00
2019-02-22T06:27:44.701Z,777.00
2019-02-22T06:28:45.000Z,776.00
2019-02-22T06:29:45.794Z,776.00
2019-02-22T06:30:46.445Z,775.00
2019-02-22T06:31:47.060Z,778.00
2019-02-22T06:32:48.020Z,777.00
2019-02-22T06:33:47.430Z,775.00
2019-02-22T06:34:48.094Z,775.00
2019-02-22T06:35:49.093Z,774.00
2019-02-22T06:37:00.747Z,774.00
2019-02-22T06:37:49.654Z,774.00
2019-02-22T06:38:51.497Z,773.00
2019-02-22T06:39:52.224Z,773.00
2019-02-22T06:40:52.940Z,773.00
2019-02-22T06:41:53.563Z,773.00
2019-02-22T06:42:54.124Z,773.00
2019-02-22T06:43:54.621Z,774.00
2019-02-22T06:44:55.228Z,774.00
2019-02-22T06:45:55.710Z,774.00
2019-02-22T06:46:56.257Z,774.00
2019-02-22T06:47:56.792Z,774.00
2019-02-22T06:48:57.220Z,774.00
2019-02-22T06:49:57.700Z,772.00
2019-02-22T06:50:58.536Z,774.00
2019-02-22T06:51:59.227Z,773.00
2019-02-22T06:52:59.825Z,773.00
2019-02-22T06:54:00.533Z,773.00
2019-02-22T06:55:01.156Z,774.00
2019-02-22T06:56:01.699Z,775.00
2019-02-22T06:57:01.769Z,776.00
2019-02-22T06:58:02.292Z,775.00
2019-02-22T06:59:02.778Z,773.00
2019-02-22T07:00:03.689Z,774.00
2019-02-22T07:00:12.730Z,774.00
2019-02-22T07:01:14.191Z,774.00
2019-02-22T07:02:14.702Z,774.00
2019-02-22T07:03:15.382Z,773.00
2019-02-22T07:04:15.944Z,774.00
2019-02-22T07:05:16.341Z,774.00
2019-02-22T07:06:16.936Z,774.00
2019-02-22T07:07:17.576Z,773.00
2019-02-22T07:08:17.127Z,773.00
2019-02-22T07:09:18.876Z,773.00
2019-02-22T07:10:19.570Z,773.00
2019-02-22T07:11:20.011Z,773.00
2019-02-22T07:12:20.575Z,773.00
2019-02-22T07:13:21.094Z,774.00
2019-02-22T07:14:21.738Z,773.00
2019-02-22T07:15:22.294Z,773.00
2019-02-22T07:16:22.428Z,773.00
2019-02-22T07:17:23.170Z,777.00
2019-02-22T07:18:22.713Z,778.00
2019-02-22T07:19:23.960Z,776.00
2019-02-22T07:20:24.683Z,775.00
2019-02-22T07:21:25.172Z,775.00
2019-02-22T07:22:24.862Z,774.00
2019-02-22T07:23:26.586Z,774.00
2019-02-22T07:24:27.107Z,774.00
2019-02-22T07:25:27.924Z,774.00
2019-02-22T07:26:28.568Z,774.00
2019-02-22T07:27:29.567Z,774.00
2019-02-22T07:28:30.268Z,774.00
2019-02-22T07:29:30.703Z,774.00
2019-02-22T07:30:31.373Z,774.00
2019-02-22T07:31:32.121Z,773.00
2019-02-22T07:32:32.776Z,774.00
2019-02-22T07:33:32.884Z,774.00
2019-02-22T07:34:33.321Z,773.00
2019-02-22T07:35:34.072Z,773.00
2019-02-22T07:36:34.397Z,773.00
2019-02-22T07:37:34.890Z,773.00
2019-02-22T07:38:35.479Z,773.00
2019-02-22T07:39:36.193Z,773.00
2019-02-22T07:40:36.210Z,773.00
2019-02-22T07:41:36.862Z,773.00
2019-02-22T07:42:37.686Z,773.00
2019-02-22T07:43:38.469Z,773.00
2019-02-22T07:44:39.087Z,773.00
2019-02-22T07:45:39.742Z,773.00
2019-02-22T07:46:40.543Z,773.00
2019-02-22T07:46:49.650Z,773.00
2019-02-22T07:47:51.487Z,773.00
2019-02-22T07:48:52.216Z,773.00
2019-02-22T07:49:52.790Z,773.00
2019-02-22T07:50:57.567Z,773.00
2019-02-22T07:51:53.424Z,773.00
2019-02-22T07:52:55.400Z,773.00
2019-02-22T07:53:55.931Z,773.00
2019-02-22T07:54:56.579Z,773.00
2019-02-22T07:55:57.241Z,773.00
2019-02-22T07:56:57.663Z,773.00
2019-02-22T07:57:58.150Z,773.00
2019-02-22T07:58:58.179Z,773.00
2019-02-22T07:59:58.734Z,773.00
2019-02-22T08:00:59.506Z,774.00
2019-02-22T08:02:00.326Z,774.00
2019-02-22T08:03:01.260Z,773.00
2019-02-22T08:04:01.811Z,773.00
2019-02-22T08:05:02.717Z,773.00
2019-02-22T08:06:03.566Z,773.00
2019-02-22T08:07:03.037Z,773.00
2019-02-22T08:08:04.595Z,772.00
2019-02-22T08:09:05.412Z,773.00
2019-02-22T08:10:06.160Z,773.00
2019-02-22T08:11:05.399Z,773.00
2019-02-22T08:12:06.627Z,772.00
2019-02-22T08:13:07.416Z,772.00
2019-02-22T08:14:08.114Z,773.00
2019-02-22T08:15:07.986Z,772.00
2019-02-22T08:16:09.520Z,772.00
2019-02-22T08:17:10.045Z,772.00
2019-02-22T08:18:10.750Z,772.00
2019-02-22T08:19:11.512Z,773.00
2019-02-22T08:20:11.357Z,773.00
2019-02-22T08:21:13.180Z,773.00
2019-02-22T08:22:13.851Z,773.00
2019-02-22T08:23:14.506Z,772.00
2019-02-22T08:24:15.244Z,773.00
2019-02-22T08:25:15.887Z,772.00
2019-02-22T08:26:16.472Z,772.00
2019-02-22T08:27:17.266Z,772.00
2019-02-22T08:28:17.977Z,772.00
2019-02-22T08:29:18.802Z,772.00
2019-02-22T08:29:27.818Z,772.00
2019-02-22T08:30:29.282Z,773.00
2019-02-22T08:31:29.348Z,773.00
2019-02-22T08:32:30.017Z,773.00
2019-02-22T08:33:30.976Z,773.00
2019-02-22T08:34:31.777Z,773.00
2019-02-22T08:35:31.892Z,772.00
2019-02-22T08:36:32.598Z,773.00
2019-02-22T08:37:33.211Z,773.00
2019-02-22T08:38:33.855Z,773.00
2019-02-22T08:39:34.349Z,772.00
2019-02-22T08:40:34.789Z,773.00
2019-02-22T08:41:35.194Z,773.00
2019-02-22T08:42:35.691Z,772.00
2019-02-22T08:43:36.444Z,772.00
2019-02-22T08:44:36.635Z,772.00
2019-02-22T08:45:37.457Z,772.00
2019-02-22T08:46:38.062Z,772.00
2019-02-22T08:47:38.639Z,772.00
2019-02-22T08:48:39.473Z,772.00
2019-02-22T08:49:40.367Z,772.00
2019-02-22T08:50:41.015Z,772.00
2019-02-22T08:51:41.798Z,772.00
2019-02-22T08:52:41.528Z,772.00
2019-02-22T08:53:43.004Z,772.00
2019-02-22T08:54:47.009Z,772.00
2019-02-22T08:55:43.440Z,772.00
2019-02-22T08:56:45.175Z,772.00
2019-02-22T08:57:45.770Z,772.00
2019-02-22T08:58:46.505Z,772.00
2019-02-22T08:59:47.134Z,772.00
2019-02-22T09:00:47.090Z,771.00
2019-02-22T09:01:47.643Z,772.00
2019-02-22T09:02:47.671Z,771.00
2019-02-22T09:03:50.952Z,770.00
2019-02-22T09:04:47.459Z,771.00
2019-02-22T09:05:48.918Z,771.00
2019-02-22T09:06:52.237Z,770.00
2019-02-22T09:07:49.145Z,769.00
2019-02-22T09:08:50.886Z,769.00
2019-02-22T09:09:51.669Z,769.00
2019-02-22T09:11:00.546Z,769.00
2019-02-22T09:11:52.216Z,769.00
2019-02-22T09:12:53.971Z,768.00
2019-02-22T09:13:54.138Z,768.00
2019-02-22T09:14:54.651Z,770.00
2019-02-22T09:15:55.262Z,770.00
2019-02-22T09:16:55.371Z,768.00
2019-02-22T09:17:55.895Z,768.00
2019-02-22T09:18:04.933Z,768.00
2019-02-22T09:19:06.411Z,770.00
2019-02-22T09:20:06.945Z,770.00
2019-02-22T09:21:07.438Z,770.00
2019-02-22T09:22:07.892Z,770.00
2019-02-22T09:23:08.625Z,770.00
2019-02-22T09:24:09.103Z,769.00
2019-02-22T09:25:08.660Z,769.00
2019-02-22T09:26:10.334Z,770.00
2019-02-22T09:27:10.844Z,769.00
2019-02-22T09:28:11.588Z,769.00
2019-02-22T09:29:12.348Z,769.00
2019-02-22T09:30:13.119Z,770.00
2019-02-22T09:31:14.057Z,770.00
2019-02-22T09:32:14.931Z,770.00
2019-02-22T09:33:15.612Z,768.00
2019-02-22T09:34:16.201Z,768.00
2019-02-22T09:35:17.005Z,770.00
2019-02-22T09:36:17.472Z,769.00
2019-02-22T09:37:18.238Z,769.00
2019-02-22T09:38:18.963Z,769.00
2019-02-22T09:39:19.530Z,769.00
2019-02-22T09:40:20.442Z,769.00
2019-02-22T09:41:21.254Z,769.00
2019-02-22T09:42:21.814Z,769.00
2019-02-22T09:43:22.365Z,769.00
2019-02-22T09:44:22.826Z,769.00
2019-02-22T09:45:24.567Z,769.00
2019-02-22T09:46:23.141Z,769.00
2019-02-22T09:47:24.599Z,768.00
2019-02-22T09:48:25.324Z,768.00
2019-02-22T09:49:25.901Z,768.00
2019-02-22T09:50:26.382Z,768.00
2019-02-22T09:51:27.074Z,768.00
2019-02-22T09:52:27.099Z,768.00
2019-02-22T09:53:27.642Z,768.00
2019-02-22T09:54:28.137Z,768.00
2019-02-22T09:55:28.762Z,768.00
2019-02-22T09:56:29.438Z,768.00
2019-02-22T09:57:30.174Z,768.00
2019-02-22T09:58:30.857Z,768.00
2019-02-22T09:59:31.569Z,768.00
2019-02-22T10:00:32.329Z,768.00
2019-02-22T10:01:33.017Z,768.00
2019-02-22T10:02:33.567Z,768.00
2019-02-22T10:03:33.911Z,768.00
2019-02-22T10:03:43.457Z,766.00
2019-02-22T10:04:54.538Z,765.00
2019-02-22T10:05:44.605Z,768.00
2019-02-22T10:06:46.368Z,770.00
2019-02-22T10:07:47.079Z,769.00
2019-02-22T10:08:46.847Z,768.00
2019-02-22T10:09:48.423Z,770.00
2019-02-22T10:10:49.096Z,769.00
2019-02-22T10:11:49.707Z,769.00
2019-02-22T10:12:50.362Z,773.00
2019-02-22T10:13:51.319Z,774.00
2019-02-22T10:14:52.229Z,774.00
2019-02-22T10:15:53.030Z,773.00
2019-02-22T10:16:53.742Z,773.00
2019-02-22T10:17:54.541Z,773.00
2019-02-22T10:18:55.066Z,772.00
2019-02-22T10:19:55.539Z,773.00
2019-02-22T10:20:56.023Z,772.00
2019-02-22T10:21:57.650Z,769.00
2019-02-22T10:22:56.200Z,769.00
2019-02-22T10:23:57.725Z,769.00
2019-02-22T10:24:58.305Z,770.00
2019-02-22T10:25:59.092Z,770.00
2019-02-22T10:26:59.919Z,769.00
2019-02-22T10:28:00.568Z,768.00
2019-02-22T10:28:59.947Z,768.00
2019-02-22T10:30:01.741Z,768.00
2019-02-22T10:31:02.010Z,766.00
2019-02-22T10:32:02.221Z,766.00
2019-02-22T10:33:02.395Z,766.00
2019-02-22T10:34:02.235Z,766.00
2019-02-22T10:35:06.939Z,765.00
2019-02-22T10:36:03.360Z,764.00
2019-02-22T10:37:03.833Z,766.00
2019-02-22T10:38:05.449Z,765.00
2019-02-22T10:39:06.267Z,765.00
2019-02-22T10:40:05.878Z,765.00
2019-02-22T10:41:07.491Z,765.00
2019-02-22T10:42:08.312Z,765.00
2019-02-22T10:43:08.917Z,765.00
2019-02-22T10:44:17.364Z,765.00
2019-02-22T10:45:09.449Z,766.00
2019-02-22T10:46:11.127Z,765.00
2019-02-22T10:47:12.074Z,765.00
2019-02-22T10:48:12.533Z,765.00
2019-02-22T10:49:13.195Z,765.00
2019-02-22T10:50:14.098Z,765.00
2019-02-22T10:51:14.989Z,764.00
2019-02-22T10:52:15.632Z,763.00
2019-02-22T10:53:16.204Z,763.00
2019-02-22T10:54:17.149Z,763.00
2019-02-22T10:54:26.631Z,764.00
2019-02-22T10:55:27.753Z,765.00
2019-02-22T10:56:28.564Z,766.00
2019-02-22T10:57:27.909Z,768.00
2019-02-22T10:58:29.671Z,766.00
2019-02-22T10:59:31.262Z,765.00
2019-02-22T11:00:30.923Z,764.00
2019-02-22T11:01:32.601Z,763.00
2019-02-22T11:02:31.744Z,762.00
2019-02-22T11:03:32.457Z,762.00
2019-02-22T11:04:33.092Z,762.00
2019-02-22T11:05:33.626Z,763.00
2019-02-22T11:06:34.241Z,763.00
2019-02-22T11:07:37.149Z,765.00
2019-02-22T11:08:34.706Z,765.00
2019-02-22T11:09:36.391Z,766.00
2019-02-22T11:10:37.337Z,768.00
2019-02-22T11:11:38.014Z,769.00
2019-02-22T11:12:38.155Z,769.00
2019-02-22T11:13:39.200Z,769.00
2019-02-22T11:14:38.127Z,770.00
2019-02-22T11:15:39.956Z,772.00
2019-02-22T11:16:39.639Z,772.00
2019-02-22T11:17:41.522Z,770.00
2019-02-22T11:18:41.140Z,768.00
2019-02-22T11:19:42.760Z,766.00
2019-02-22T11:20:43.773Z,766.00
2019-02-22T11:21:43.476Z,766.00
2019-02-22T11:22:44.640Z,765.00
2019-02-22T11:23:45.488Z,766.00
2019-02-22T11:24:46.119Z,766.00
2019-02-22T11:25:46.354Z,765.00
2019-02-22T11:26:45.648Z,765.00
2019-02-22T11:27:45.681Z,765.00
2019-02-22T11:28:45.920Z,765.00
2019-02-22T11:29:49.327Z,765.00
2019-02-22T11:30:47.481Z,765.00
2019-02-22T11:31:49.432Z,765.00
2019-02-22T11:32:51.162Z,765.00
2019-02-22T11:33:50.855Z,763.00
2019-02-22T11:34:51.499Z,763.00
2019-02-22T11:35:52.270Z,763.00
2019-02-22T11:36:52.810Z,763.00
2019-02-22T11:37:53.537Z,764.00
2019-02-22T11:38:54.183Z,763.00
2019-02-22T11:39:53.882Z,765.00
2019-02-22T11:40:55.874Z,766.00
2019-02-22T11:41:56.660Z,766.00
2019-02-22T11:42:57.189Z,766.00
2019-02-22T11:43:57.849Z,764.00
2019-02-22T11:44:58.543Z,764.00
2019-02-22T11:45:59.302Z,763.00
2019-02-22T11:46:59.875Z,763.00
2019-02-22T11:47:11.957Z,763.00
2019-02-22T11:48:13.604Z,763.00
2019-02-22T11:49:14.610Z,762.00
2019-02-22T11:50:15.135Z,763.00
2019-02-22T11:51:15.732Z,762.00
2019-02-22T11:52:16.148Z,762.00
2019-02-22T11:53:16.611Z,763.00
2019-02-22T11:54:17.386Z,763.00
2019-02-22T11:55:18.339Z,763.00
2019-02-22T11:56:18.565Z,763.00
2019-02-22T11:57:19.715Z,763.00
2019-02-22T11:58:19.164Z,763.00
2019-02-22T11:59:21.007Z,763.00
2019-02-22T12:00:21.795Z,763.00
2019-02-22T12:01:21.682Z,765.00
2019-02-22T12:02:23.511Z,764.00
2019-02-22T12:03:25.225Z,765.00
2019-02-22T12:04:23.703Z,765.00
2019-02-22T12:05:25.405Z,763.00
2019-02-22T12:06:26.339Z,764.00
2019-02-22T12:07:26.817Z,765.00
2019-02-22T12:08:27.481Z,765.00
2019-02-22T12:09:27.999Z,763.00
2019-02-22T12:10:28.672Z,763.00
2019-02-22T12:11:29.229Z,763.00
2019-02-22T12:12:29.799Z,763.00
2019-02-22T12:13:31.976Z,763.00
2019-02-22T12:14:30.539Z,765.00
2019-02-22T12:15:32.061Z,763.00
2019-02-22T12:16:32.642Z,765.00
2019-02-22T12:17:33.430Z,765.00
2019-02-22T12:18:36.434Z,766.00
2019-02-22T12:19:34.337Z,766.00
2019-02-22T12:20:36.281Z,766.00
2019-02-22T12:21:36.874Z,766.00
2019-02-22T12:22:37.792Z,765.00
2019-02-22T12:23:38.311Z,763.00